Asbury, Iowa
Current Conditions -  °F | °C
As of 12:53 AM on Sunday 23 Nov 2014 (Local Time) from KDBQ Reporting Station
Haze Haze  
Wind Chill: 40°   Ceiling: 300
Heat Index: 47°   Visibility: 1.2mi
Dew Point: 47°   Wind: 20mph
Humidity: 100%   Direction: 180°S
Pressure: 29.69"   Gusts: NA
Location:  42.522°N, 90.7782°W
Report Text: KDBQ 230653Z AUTO 18017KT 1 1/4SM R36/6000VP6000FT BR OVC003 08/08 A2969 RMK AO2 SLP059 T00830083 $
Loading
Personal Weather Stations






























Interactive Weather Map New forecast layout! Learn more

10-Day Weather Forecast

Advertisements
Track Severe Weather on mobile